Strona główna
METAR-TAF:

METAR-TAF

Lotnisko :

Baza lotnicza

Salon-de-Provence, Francja

Szerokość geograficzna: 43-36N, Długość geograficzna: 005-06E, wysokość: 59 m

Aktualna obserwacja pogody

Raport powstał 20 minut temu, godzina 04:00 UTC
Wiatr 2 kt z kierunków zmiennych
Temperatura 1°C
Wilgotność 75%
Ciśnienie 1019 hPa
Widzialność 10 km lub więcej
Brak chmur poniżej 1500 m i brak chmur cumulonimbus

METAR: LFMY 110400Z AUTO VRB02KT CAVOK 01/M03 Q1019 NOSIG

czas: 05:20 (04:20 UTC)

Prognoza

Raport powstał 14 godziny i 20 minut temu, godzina 14:00 UTC
Prognoza ważna od 10 godzina 15 UTC do 11 godzina 15 UTC
Wiatr 17 kt od północny zachód w porywach dochodzący do 27 kt
Widzialność 10 km lub więcej
Brak chmur poniżej 1500 m i brak chmur cumulonimbus
Stopniowe zmiany
od 10 godzina 18 UTC do 10 godzina 20 UTC
Wiatr 5 kt od wschód
Stopniowe zmiany
od 11 godzina 13 UTC do 11 godzina 15 UTC
Wiatr 12 kt od północno-północny zachód

TAF: LFMY 101400Z 1015/1115 32017G27KT CAVOK BECMG 1018/1020 09005KT BECMG 1113/1115 34012KT

Obserwacja i prognoza pogody dla ponad 4000 lotnisk (raport METAR i TAF).

Dostępne stacje oznaczono żółtymi i czerwonymi punktami na mapie.

Najedź kursorem aby zobaczyć nazwę stacji.

Kliknij aby zobaczyć obserwacje i prognozy pogody.

Aby zmienić mapę: kliknij na zielony przycisk z czarnym krzyżykiem, aby powiększyć; na zielony przycisk z myślnikiem, aby pomniejszyć; na zielone strzałki, aby przejść do map sąsiednich.


METAR-TAF: